Time;durP1;ratioP1;P1;durP2;ratioP2;P2;SDS_P1;SDS_P2;PMS_P1;PMS_P2;Temp;Humidity;BMP_temperature;BMP_pressure;BME280_temperature;BME280_humidity;BME280_pressure;Samples;Min_cycle;Max_cycle;Signal;HPM_P1;HPM_P2
2022/01/04 00:02:04;;;;;;;9.98;9.48;;;;;;;4.77;100.00;100122.78;4981936;28;20026;-67
2022/01/04 00:04:29;;;;;;;9.10;8.68;;;;;;;4.74;100.00;100134.44;4972280;28;20031;-69
2022/01/04 00:06:57;;;;;;;9.52;9.02;;;;;;;4.66;100.00;100135.16;4970607;28;20058;-67
2022/01/04 00:09:22;;;;;;;9.65;9.15;;;;;;;4.76;100.00;100131.66;4973085;28;20034;-68
2022/01/04 00:14:17;;;;;;;8.90;8.50;;;;;;;4.74;100.00;100141.50;4971056;28;20085;-70
2022/01/04 00:16:43;;;;;;;9.00;8.60;;;;;;;4.75;100.00;100141.34;4963476;28;20090;-72
2022/01/04 00:19:09;;;;;;;9.10;8.70;;;;;;;4.78;100.00;100143.69;4971455;28;20031;-69
2022/01/04 00:21:35;;;;;;;9.35;8.85;;;;;;;4.78;100.00;100142.88;4971504;28;20396;-66
2022/01/04 00:24:00;;;;;;;8.68;8.27;;;;;;;4.79;100.00;100140.09;4971757;28;20165;-66
2022/01/04 00:26:27;;;;;;;8.93;8.52;;;;;;;4.84;100.00;100148.34;4969158;28;20524;-66
2022/01/04 00:28:52;;;;;;;9.50;9.00;;;;;;;4.85;100.00;100154.44;4971134;28;20398;-69
2022/01/04 00:31:18;;;;;;;8.88;8.48;;;;;;;4.88;100.00;100156.75;4973367;28;20035;-70
2022/01/04 00:33:43;;;;;;;8.90;8.50;;;;;;;4.99;100.00;100164.44;4974780;28;20477;-68
2022/01/04 00:36:09;;;;;;;9.57;9.07;;;;;;;5.03;100.00;100170.25;4971375;28;20050;-68
2022/01/04 00:38:34;;;;;;;9.50;9.00;;;;;;;5.11;100.00;100172.94;4971650;28;20038;-69
2022/01/04 00:40:59;;;;;;;9.20;8.70;;;;;;;5.09;100.00;100170.47;4966672;28;20551;-68
2022/01/04 00:43:25;;;;;;;9.52;9.02;;;;;;;5.10;100.00;100176.56;4972940;28;20034;-69
2022/01/04 00:45:52;;;;;;;9.10;8.70;;;;;;;5.14;100.00;100173.50;4968559;28;20050;-68
2022/01/04 00:50:43;;;;;;;9.23;8.77;;;;;;;5.14;100.00;100177.91;4966428;28;20030;-66
2022/01/04 00:53:09;;;;;;;8.77;8.38;;;;;;;5.21;100.00;100182.44;4969424;28;20041;-66
2022/01/04 00:55:35;;;;;;;8.70;8.30;;;;;;;5.20;100.00;100180.78;4973025;28;20050;-63
2022/01/04 00:58:02;;;;;;;8.80;8.40;;;;;;;5.18;100.00;100188.00;4972685;28;20089;-65
2022/01/04 01:00:27;;;;;;;8.75;8.35;;;;;;;5.18;100.00;100182.72;4973328;28;20122;-65
2022/01/04 01:02:53;;;;;;;8.63;8.23;;;;;;;5.22;100.00;100178.84;4973626;28;20035;-66
2022/01/04 01:05:19;;;;;;;8.60;8.20;;;;;;;5.24;100.00;100183.94;4972326;28;20401;-68
2022/01/04 01:07:45;;;;;;;8.77;8.38;;;;;;;5.26;100.00;100189.88;4982226;28;20468;-63
2022/01/04 01:12:57;;;;;;;8.88;8.48;;;;;;;5.26;100.00;100180.19;4963875;28;20039;-68
2022/01/04 01:15:23;;;;;;;8.55;8.15;;;;;;;5.28;100.00;100185.28;4967775;28;20494;-67
2022/01/04 01:17:49;;;;;;;8.93;8.52;;;;;;;5.29;100.00;100197.47;4964425;28;20022;-68
2022/01/04 01:20:14;;;;;;;8.93;8.52;;;;;;;5.27;100.00;100192.34;4971455;28;20056;-69
2022/01/04 01:22:41;;;;;;;9.00;8.60;;;;;;;5.26;100.00;100201.22;4970252;28;20060;-68
2022/01/04 01:25:07;;;;;;;8.73;8.32;;;;;;;5.19;100.00;100200.16;4965172;28;20059;-66
2022/01/04 01:27:33;;;;;;;9.05;8.63;;;;;;;5.17;100.00;100196.03;4969732;28;20034;-69
2022/01/04 01:29:59;;;;;;;8.98;8.57;;;;;;;5.15;100.00;100184.84;4971707;28;20038;-70
2022/01/04 01:32:24;;;;;;;9.18;8.77;;;;;;;5.20;100.00;100188.66;4971321;28;21058;-68
2022/01/04 01:34:49;;;;;;;8.60;8.20;;;;;;;5.18;100.00;100193.25;4969042;28;20393;-69
2022/01/04 01:37:15;;;;;;;9.23;8.80;;;;;;;5.20;100.00;100193.91;4960123;28;20031;-67
2022/01/04 01:39:41;;;;;;;8.60;8.20;;;;;;;5.23;100.00;100187.56;4971395;28;20046;-69
2022/01/04 01:42:07;;;;;;;8.40;8.00;;;;;;;5.19;100.00;100183.56;4972152;28;20038;-65
2022/01/04 01:44:34;;;;;;;9.07;8.65;;;;;;;5.18;100.00;100193.25;4970276;28;20034;-69
2022/01/04 01:46:59;;;;;;;8.50;8.10;;;;;;;5.17;100.00;100183.72;4969052;28;20065;-72
2022/01/04 01:49:25;;;;;;;8.80;8.40;;;;;;;5.19;100.00;100184.38;4971157;28;20046;-72
2022/01/04 01:51:52;;;;;;;8.82;8.40;;;;;;;5.22;100.00;100188.53;4966955;28;20050;-70
2022/01/04 01:54:17;;;;;;;9.15;8.65;;;;;;;5.24;100.00;100183.94;4965504;28;20428;-67
2022/01/04 01:56:43;;;;;;;8.70;8.30;;;;;;;5.22;100.00;100180.66;4960509;28;20052;-70
2022/01/04 01:59:09;;;;;;;8.90;8.50;;;;;;;5.24;100.00;100187.41;4971385;28;20449;-68
2022/01/04 02:01:34;;;;;;;8.85;8.43;;;;;;;5.18;100.00;100172.22;4970153;28;20089;-66
2022/01/04 02:04:00;;;;;;;8.57;8.18;;;;;;;5.12;100.00;100172.81;4971914;28;20038;-71
2022/01/04 02:06:29;;;;;;;9.15;8.75;;;;;;;5.07;100.00;100168.94;4969656;28;20121;-69
2022/01/04 02:08:56;;;;;;;9.02;8.63;;;;;;;4.99;100.00;100191.56;4971370;28;20457;-72
2022/01/04 02:11:23;;;;;;;8.60;8.20;;;;;;;5.00;100.00;100192.41;4967910;28;20034;-70
2022/01/04 02:13:49;;;;;;;9.00;8.60;;;;;;;4.97;100.00;100190.03;4970925;28;20041;-67
2022/01/04 02:16:16;;;;;;;8.65;8.25;;;;;;;4.98;100.00;100194.31;4969728;28;20413;-67
2022/01/04 02:18:41;;;;;;;8.52;8.13;;;;;;;5.00;100.00;100192.41;4962445;28;20019;-67
2022/01/04 02:21:07;;;;;;;8.70;8.30;;;;;;;5.05;100.00;100182.25;4970595;28;20031;-70
2022/01/04 02:23:33;;;;;;;9.32;8.82;;;;;;;5.06;100.00;100188.34;4971899;28;20085;-68
2022/01/04 02:26:02;;;;;;;8.75;8.35;;;;;;;5.07;100.00;100190.84;4962054;28;20185;-67
2022/01/04 02:28:29;;;;;;;8.73;8.32;;;;;;;5.07;100.00;100196.09;4971734;28;20039;-66
2022/01/04 02:30:55;;;;;;;8.85;8.45;;;;;;;5.04;100.00;100190.28;4959096;28;20019;-67
2022/01/04 02:33:20;;;;;;;8.88;8.48;;;;;;;5.02;100.00;100190.44;4962645;28;20038;-71
2022/01/04 02:35:45;;;;;;;8.70;8.30;;;;;;;5.00;100.00;100200.28;4966253;28;20023;-66
2022/01/04 02:38:11;;;;;;;9.10;8.65;;;;;;;5.01;100.00;100198.47;4969423;28;20035;-67
2022/01/04 02:40:36;;;;;;;9.13;8.65;;;;;;;5.01;100.00;100191.41;4967613;28;20169;-69
2022/01/04 02:43:02;;;;;;;8.55;8.15;;;;;;;4.98;100.00;100196.97;4971316;28;20034;-69
2022/01/04 02:45:27;;;;;;;9.15;8.65;;;;;;;4.98;100.00;100194.31;4963567;28;20042;-69
2022/01/04 02:47:53;;;;;;;8.40;8.00;;;;;;;4.99;100.00;100193.34;4966664;28;20384;-67
2022/01/04 02:50:19;;;;;;;8.50;8.10;;;;;;;4.94;100.00;100190.34;4969886;28;20481;-70
2022/01/04 02:52:44;;;;;;;8.82;8.43;;;;;;;4.91;100.00;100198.50;4971240;28;20125;-71
2022/01/04 02:55:13;;;;;;;8.43;8.02;;;;;;;4.85;100.00;100194.69;4970756;28;20046;-65
2022/01/04 02:57:39;;;;;;;9.00;8.55;;;;;;;4.89;100.00;100198.66;4968822;28;20034;-70
2022/01/04 03:00:08;;;;;;;8.85;8.45;;;;;;;4.91;100.00;100188.81;4970976;28;20038;-63
2022/01/04 03:02:34;;;;;;;8.63;8.23;;;;;;;4.86;100.00;100191.09;4968688;28;20397;-69
2022/01/04 03:05:00;;;;;;;8.77;8.38;;;;;;;4.90;100.00;100191.59;4971031;28;20089;-66
2022/01/04 03:07:25;;;;;;;9.45;8.95;;;;;;;4.91;100.00;100190.63;4972011;28;20031;-66
2022/01/04 03:09:51;;;;;;;9.10;8.65;;;;;;;4.96;100.00;100193.66;4966894;28;20083;-65
2022/01/04 03:12:16;;;;;;;8.45;8.05;;;;;;;4.94;100.00;100193.81;4965605;28;20038;-68
2022/01/04 03:14:42;;;;;;;8.73;8.32;;;;;;;4.89;100.00;100188.16;4963162;28;20097;-66
2022/01/04 03:17:07;;;;;;;8.75;8.35;;;;;;;4.90;100.00;100195.06;4965282;28;20441;-68
2022/01/04 03:19:33;;;;;;;8.90;8.50;;;;;;;4.93;100.00;100191.34;4974884;28;20027;-67
2022/01/04 03:21:58;;;;;;;8.50;8.10;;;;;;;4.93;100.00;100197.41;4978950;28;20027;-64
2022/01/04 03:24:25;;;;;;;9.30;8.80;;;;;;;4.83;100.00;100194.00;4975147;28;20030;-68
2022/01/04 03:26:50;;;;;;;8.70;8.30;;;;;;;4.88;100.00;100191.75;4972325;28;20049;-68
2022/01/04 03:29:16;;;;;;;8.68;8.27;;;;;;;4.92;100.00;100187.88;4962471;28;20027;-64
2022/01/04 03:31:43;;;;;;;9.18;8.73;;;;;;;4.93;100.00;100188.69;4968201;28;20493;-66
2022/01/04 03:34:10;;;;;;;8.95;8.55;;;;;;;4.87;100.00;100184.84;4974027;28;20037;-64
2022/01/04 03:36:35;;;;;;;8.75;8.35;;;;;;;4.92;100.00;100190.50;4979275;28;20115;-68
2022/01/04 03:39:04;;;;;;;9.13;8.63;;;;;;;4.91;100.00;100190.63;4971420;28;20130;-67
2022/01/04 03:41:31;;;;;;;9.40;8.90;;;;;;;4.86;100.00;100188.47;4974111;28;20018;-66
2022/01/04 03:43:56;;;;;;;8.95;8.55;;;;;;;4.83;100.00;100194.00;4973373;28;20033;-68
2022/01/04 03:46:22;;;;;;;9.00;8.60;;;;;;;4.77;100.00;100194.56;4972809;28;20030;-67
2022/01/04 03:48:48;;;;;;;9.00;8.60;;;;;;;4.69;100.00;100197.91;4974461;28;20469;-63
2022/01/04 03:51:14;;;;;;;8.90;8.50;;;;;;;4.69;100.00;100186.59;4970569;28;20027;-66
2022/01/04 03:53:39;;;;;;;8.52;8.13;;;;;;;4.60;100.00;100188.28;4973763;28;20062;-67
2022/01/04 03:56:05;;;;;;;9.35;8.85;;;;;;;4.57;100.00;100183.34;4970955;28;20082;-62
2022/01/04 03:58:31;;;;;;;9.00;8.60;;;;;;;4.56;100.00;100192.19;4974665;28;20117;-69
2022/01/04 04:00:57;;;;;;;8.70;8.30;;;;;;;4.57;100.00;100188.59;4974576;28;20050;-68
2022/01/04 04:03:23;;;;;;;9.40;8.93;;;;;;;4.53;100.00;100181.94;4960034;28;20030;-67
2022/01/04 04:05:49;;;;;;;9.38;8.88;;;;;;;4.47;100.00;100189.56;4971786;28;20038;-68
2022/01/04 04:08:15;;;;;;;9.48;8.98;;;;;;;4.44;100.00;100182.81;4971039;28;20054;-67
2022/01/04 04:10:41;;;;;;;9.25;8.77;;;;;;;4.35;100.00;100181.88;4966580;28;20023;-64
2022/01/04 04:13:06;;;;;;;9.30;8.90;;;;;;;4.26;100.00;100184.53;4970900;28;20043;-66
2022/01/04 04:15:32;;;;;;;9.00;8.60;;;;;;;4.12;100.00;100173.53;4971326;28;20039;-66
2022/01/04 04:17:57;;;;;;;9.48;8.98;;;;;;;4.02;100.00;100170.06;4968627;28;20046;-68
2022/01/04 04:20:23;;;;;;;9.75;9.25;;;;;;;3.94;100.00;100175.19;4968628;28;20082;-68
2022/01/04 04:22:48;;;;;;;9.07;8.68;;;;;;;3.87;100.00;100172.31;4971416;28;20117;-71
2022/01/04 04:25:14;;;;;;;8.98;8.57;;;;;;;3.78;100.00;100167.09;4977962;28;20488;-67
2022/01/04 04:27:40;;;;;;;9.50;9.00;;;;;;;3.77;100.00;100175.94;4966678;28;20034;-68
2022/01/04 04:30:07;;;;;;;9.63;9.13;;;;;;;3.68;100.00;100177.59;4973577;28;20031;-65
2022/01/04 04:32:32;;;;;;;9.50;9.00;;;;;;;3.59;100.00;100176.59;4969430;28;20081;-70
2022/01/04 04:34:58;;;;;;;10.07;9.55;;;;;;;3.57;100.00;100170.69;4973591;28;20031;-65
2022/01/04 04:37:23;;;;;;;9.30;8.80;;;;;;;3.50;100.00;100172.19;4969168;28;20038;-66
2022/01/04 04:39:49;;;;;;;9.02;8.63;;;;;;;3.38;100.00;100168.06;4971864;28;20455;-69
2022/01/04 04:42:16;;;;;;;10.50;9.90;;;;;;;3.35;100.00;100178.81;4972631;28;20022;-68
2022/01/04 04:44:43;;;;;;;10.05;9.52;;;;;;;3.27;100.00;100174.25;4971011;28;20031;-67
2022/01/04 04:47:09;;;;;;;8.70;8.30;;;;;;;3.23;100.00;100169.41;4958644;28;20613;-65
2022/01/04 04:49:34;;;;;;;9.55;9.05;;;;;;;3.21;100.00;100171.34;4972317;28;20121;-67
2022/01/04 04:52:00;;;;;;;9.52;9.02;;;;;;;3.19;100.00;100165.41;4964225;28;20027;-71
2022/01/04 04:54:27;;;;;;;9.45;8.95;;;;;;;3.18;100.00;100163.78;4974159;28;20069;-68
2022/01/04 04:56:53;;;;;;;9.95;9.43;;;;;;;3.16;100.00;100160.44;4969235;28;20038;-68
2022/01/04 04:59:18;;;;;;;9.75;9.25;;;;;;;3.19;100.00;100163.63;4972681;28;20027;-67
2022/01/04 05:01:44;;;;;;;9.20;8.80;;;;;;;3.07;100.00;100163.88;4961598;28;20027;-66
2022/01/04 05:04:10;;;;;;;9.77;9.27;;;;;;;3.00;100.00;100167.03;4969198;28;20392;-66
2022/01/04 05:06:35;;;;;;;9.50;9.00;;;;;;;2.92;100.00;100166.88;4973738;28;20035;-69
2022/01/04 05:09:01;;;;;;;9.68;9.18;;;;;;;2.80;100.00;100178.44;4973742;28;20034;-67
2022/01/04 05:11:26;;;;;;;9.40;8.90;;;;;;;2.67;100.00;100168.19;4974126;28;20556;-66
2022/01/04 05:13:52;;;;;;;9.80;9.30;;;;;;;2.66;100.00;100187.50;4974781;28;20042;-65
2022/01/04 05:16:18;;;;;;;9.60;9.10;;;;;;;2.55;100.00;100174.47;4961092;28;20027;-68
2022/01/04 05:18:43;;;;;;;9.52;9.05;;;;;;;2.59;100.00;100175.06;4972127;28;20042;-66
2022/01/04 05:21:09;;;;;;;10.27;9.68;;;;;;;2.54;100.00;100172.81;4972784;28;20058;-69
2022/01/04 05:23:34;;;;;;;9.93;9.43;;;;;;;2.48;100.00;100171.56;4974589;28;20064;-65
2022/01/04 05:25:59;;;;;;;10.27;9.68;;;;;;;2.43;100.00;100175.56;4973674;28;20031;-68
2022/01/04 05:28:25;;;;;;;9.52;9.02;;;;;;;2.33;100.00;100178.09;4975585;28;20098;-67
2022/01/04 05:30:51;;;;;;;9.80;9.30;;;;;;;2.28;100.00;100174.22;4977498;28;20381;-68
2022/01/04 05:33:16;;;;;;;9.57;9.07;;;;;;;2.24;100.00;100181.50;4977123;28;20034;-69
2022/01/04 05:35:42;;;;;;;9.88;9.38;;;;;;;2.22;100.00;100183.44;4979101;28;20023;-67
2022/01/04 05:38:07;;;;;;;9.75;9.25;;;;;;;2.25;100.00;100187.56;4974003;28;20121;-67
2022/01/04 05:40:34;;;;;;;9.82;9.32;;;;;;;2.21;100.00;100184.41;4972552;28;20046;-69
2022/01/04 05:42:59;;;;;;;9.27;8.77;;;;;;;2.12;100.00;100188.59;4969223;28;20420;-67
2022/01/04 05:45:25;;;;;;;10.15;9.60;;;;;;;2.12;100.00;100179.91;4965769;28;20022;-66
2022/01/04 05:47:50;;;;;;;9.35;8.88;;;;;;;2.05;100.00;100181.38;4960638;28;20030;-64
2022/01/04 05:50:16;;;;;;;10.18;9.68;;;;;;;2.09;100.00;100177.56;4963466;28;20109;-65
2022/01/04 05:52:41;;;;;;;9.90;9.40;;;;;;;2.13;100.00;100178.94;4970130;28;20085;-62
2022/01/04 05:55:08;;;;;;;9.65;9.15;;;;;;;2.12;100.00;100180.75;4970975;28;20047;-68
2022/01/04 05:57:33;;;;;;;10.32;9.73;;;;;;;2.15;100.00;100184.91;4968537;28;20091;-66
2022/01/04 05:59:59;;;;;;;10.60;10.00;;;;;;;2.26;100.00;100184.81;4971191;28;20061;-68
2022/01/04 06:02:25;;;;;;;9.95;9.45;;;;;;;2.39;100.00;100187.22;4966896;28;20032;-63
2022/01/04 06:04:50;;;;;;;9.90;9.40;;;;;;;2.31;100.00;100197.53;4967460;28;20109;-64
2022/01/04 06:07:16;;;;;;;9.60;9.10;;;;;;;2.34;100.00;100195.47;4965480;28;20378;-64
2022/01/04 06:09:45;;;;;;;11.35;10.65;;;;;;;2.62;100.00;100193.13;4967299;28;20049;-64
2022/01/04 06:14:56;;;;;;;8.93;8.50;;;;;;;3.77;100.00;100197.75;4966330;28;20511;-68
2022/01/04 06:17:26;;;;;;;9.32;8.82;;;;;;;4.21;100.00;100207.78;4962433;28;20486;-63
2022/01/04 06:19:53;;;;;;;9.15;8.65;;;;;;;4.71;100.00;100203.88;4965152;28;20031;-66
2022/01/04 06:22:19;;;;;;;8.27;7.88;;;;;;;5.01;100.00;100206.38;4972997;28;20388;-64
2022/01/04 06:24:44;;;;;;;8.38;7.97;;;;;;;5.38;100.00;100198.38;4971176;28;20042;-64
2022/01/04 06:27:11;;;;;;;8.52;8.13;;;;;;;5.69;100.00;100194.41;4969506;28;20488;-65
2022/01/04 06:29:40;;;;;;;8.48;8.07;;;;;;;5.93;100.00;100198.25;4972533;28;20409;-64
2022/01/04 06:32:10;;;;;;;7.90;7.60;;;;;;;6.41;100.00;100197.75;4971500;28;20477;-64
2022/01/04 06:34:37;;;;;;;8.38;7.97;;;;;;;7.07;98.24;100201.53;4970864;28;20174;-64
2022/01/04 06:37:04;;;;;;;8.60;8.20;;;;;;;7.66;95.19;100207.59;4965684;28;20052;-65
2022/01/04 06:39:29;;;;;;;9.23;8.73;;;;;;;8.26;89.71;100204.59;4960710;28;20505;-64
2022/01/04 06:41:55;;;;;;;9.23;8.73;;;;;;;9.88;83.39;100203.03;4985347;28;20030;-70
2022/01/04 06:44:21;;;;;;;9.13;8.65;;;;;;;11.95;71.60;100199.38;4970999;28;20022;-65
2022/01/04 06:46:46;;;;;;;9.43;8.93;;;;;;;13.00;64.60;100210.75;4969928;28;20508;-67
2022/01/04 06:49:13;;;;;;;8.57;8.18;;;;;;;13.88;58.70;100204.63;4969453;28;20042;-66
2022/01/04 06:51:43;;;;;;;8.85;8.45;;;;;;;14.68;54.71;100205.41;4975234;28;20018;-66
2022/01/04 06:54:10;;;;;;;8.70;8.30;;;;;;;15.38;51.07;100214.41;4972458;28;20077;-65
2022/01/04 06:56:36;;;;;;;9.32;8.93;;;;;;;15.81;49.79;100208.41;4978557;28;20021;-64
2022/01/04 06:59:02;;;;;;;9.60;9.13;;;;;;;16.36;46.96;100209.41;4976129;28;20031;-65
2022/01/04 07:01:28;;;;;;;8.65;8.25;;;;;;;16.85;44.75;100216.56;4968183;28;20465;-65
2022/01/04 07:03:53;;;;;;;8.77;8.38;;;;;;;16.62;44.37;100221.72;4975312;28;20102;-66
2022/01/04 07:06:18;;;;;;;8.85;8.45;;;;;;;17.09;43.87;100225.53;4984150;28;20038;-65
2022/01/04 07:08:44;;;;;;;9.25;8.85;;;;;;;18.01;40.75;100224.53;4975924;28;20030;-66
2022/01/04 07:11:10;;;;;;;9.10;8.70;;;;;;;18.10;40.92;100231.19;4964595;28;20027;-66
2022/01/04 07:13:35;;;;;;;9.55;9.15;;;;;;;18.97;38.74;100223.25;4981219;28;20030;-65
2022/01/04 07:16:01;;;;;;;10.27;9.77;;;;;;;19.37;38.34;100231.31;4982399;28;20034;-69
2022/01/04 07:18:26;;;;;;;9.70;9.30;;;;;;;19.26;37.97;100224.94;4970153;28;20022;-66
2022/01/04 07:20:52;;;;;;;9.75;9.35;;;;;;;18.50;40.40;100212.50;4974633;28;21291;-67
2022/01/04 07:23:17;;;;;;;9.75;9.35;;;;;;;20.17;36.13;100230.31;4975170;28;20030;-69
2022/01/04 07:25:43;;;;;;;10.20;9.70;;;;;;;18.62;38.37;100220.59;4975305;28;20037;-66
2022/01/04 07:28:09;;;;;;;10.63;10.13;;;;;;;20.30;35.13;100221.09;4979671;28;20026;-68
2022/01/04 07:30:34;;;;;;;10.05;9.55;;;;;;;19.98;36.54;100220.88;4971503;28;20038;-68
2022/01/04 07:33:00;;;;;;;9.90;9.40;;;;;;;20.82;33.73;100218.09;4971277;28;20042;-70
2022/01/04 07:35:26;;;;;;;9.93;9.43;;;;;;;21.14;34.49;100227.13;4973809;28;20062;-67
2022/01/04 07:37:52;;;;;;;9.70;9.30;;;;;;;20.02;35.31;100225.50;4975320;28;20720;-69
2022/01/04 07:40:18;;;;;;;10.77;10.27;;;;;;;19.40;35.58;100217.41;4976159;28;20042;-69
2022/01/04 07:42:43;;;;;;;9.75;9.35;;;;;;;20.25;34.70;100212.94;4979202;28;20542;-69
2022/01/04 07:45:09;;;;;;;10.10;9.60;;;;;;;20.09;34.55;100219.97;4966644;28;20037;-68
2022/01/04 07:47:35;;;;;;;10.18;9.68;;;;;;;19.30;36.13;100217.19;4973392;28;20108;-66
2022/01/04 07:50:01;;;;;;;9.45;9.05;;;;;;;19.59;35.10;100216.16;4972812;28;20055;-66
2022/01/04 07:52:26;;;;;;;9.50;9.10;;;;;;;21.18;33.27;100224.75;4973803;28;20045;-66
2022/01/04 07:54:53;;;;;;;9.55;9.15;;;;;;;20.68;32.72;100223.03;4968164;28;20146;-68
2022/01/04 07:57:19;;;;;;;10.20;9.70;;;;;;;21.10;33.19;100228.72;4973376;28;20031;-67
2022/01/04 07:59:44;;;;;;;9.20;8.80;;;;;;;19.89;35.24;100228.50;4971812;28;20034;-65
2022/01/04 08:02:10;;;;;;;9.77;9.38;;;;;;;19.74;35.14;100234.44;4971246;28;20038;-67
2022/01/04 08:04:35;;;;;;;10.25;9.75;;;;;;;20.94;32.96;100237.69;4970729;28;20027;-66
2022/01/04 08:07:00;;;;;;;9.98;9.48;;;;;;;20.75;33.47;100239.84;4978796;28;20030;-68
2022/01/04 08:09:26;;;;;;;9.40;9.00;;;;;;;19.68;34.58;100232.72;4976180;28;20027;-66
2022/01/04 08:11:51;;;;;;;9.73;9.32;;;;;;;18.35;37.94;100237.16;4964026;28;20409;-65
2022/01/04 08:14:17;;;;;;;9.40;9.00;;;;;;;16.17;41.85;100229.97;4972401;28;20040;-68
2022/01/04 08:16:43;;;;;;;9.60;9.20;;;;;;;15.00;45.27;100230.41;4975061;28;20019;-67
2022/01/04 08:19:08;;;;;;;9.93;9.43;;;;;;;13.55;48.32;100235.53;4967022;28;20504;-68
2022/01/04 08:21:34;;;;;;;9.73;9.32;;;;;;;14.66;45.60;100229.66;4973583;28;20034;-67
2022/01/04 08:24:00;;;;;;;9.75;9.32;;;;;;;14.14;46.92;100231.31;4974194;28;20050;-69
2022/01/04 08:26:26;;;;;;;9.55;9.15;;;;;;;13.46;48.62;100239.41;4969176;28;20085;-68
2022/01/04 08:28:52;;;;;;;9.98;9.52;;;;;;;13.42;49.43;100235.50;4970886;28;20035;-68
2022/01/04 08:31:17;;;;;;;10.40;9.90;;;;;;;15.17;45.11;100232.38;4970001;28;20030;-68
2022/01/04 08:33:42;;;;;;;10.13;9.63;;;;;;;17.27;40.62;100234.63;4973185;28;20030;-70
2022/01/04 08:36:10;;;;;;;10.13;9.63;;;;;;;18.59;37.48;100226.44;4973426;28;20428;-67
2022/01/04 08:38:36;;;;;;;10.50;10.00;;;;;;;19.46;36.55;100229.88;4972638;28;20099;-69
2022/01/04 08:41:02;;;;;;;9.55;9.15;;;;;;;18.83;36.27;100230.75;4971625;28;20034;-68
2022/01/04 08:43:27;;;;;;;9.35;8.95;;;;;;;18.44;37.59;100216.97;4967460;28;20038;-69
2022/01/04 08:45:53;;;;;;;9.13;8.73;;;;;;;17.86;38.80;100231.16;4973058;28;20030;-68
2022/01/04 08:48:18;;;;;;;9.18;8.77;;;;;;;16.19;41.60;100224.38;4968695;28;20049;-67
2022/01/04 08:50:44;;;;;;;10.60;10.10;;;;;;;16.68;42.08;100223.50;4970953;28;20507;-69
2022/01/04 08:53:11;;;;;;;10.27;9.77;;;;;;;16.69;40.76;100217.16;4972570;28;20121;-68
2022/01/04 08:55:38;;;;;;;10.15;9.65;;;;;;;17.53;39.14;100215.47;4970077;28;20058;-69
2022/01/04 08:58:04;;;;;;;10.25;9.75;;;;;;;17.82;38.64;100221.91;4963482;28;20033;-67
2022/01/04 09:00:29;;;;;;;9.52;9.13;;;;;;;15.59;43.11;100216.75;4972067;28;20124;-68
2022/01/04 09:02:55;;;;;;;9.50;9.10;;;;;;;15.95;42.35;100202.75;4971604;28;20054;-68
2022/01/04 09:05:20;;;;;;;9.65;9.23;;;;;;;12.25;50.83;100195.53;4971172;28;20029;-67
2022/01/04 09:07:45;;;;;;;10.35;9.85;;;;;;;13.67;49.49;100198.47;4973776;28;20027;-70
2022/01/04 09:10:11;;;;;;;11.07;10.57;;;;;;;12.52;51.73;100199.22;4970951;28;20026;-67
2022/01/04 09:13:04;;;;;;;10.98;10.48;;;;;;;11.82;54.73;100200.09;4966099;28;20031;-71
2022/01/04 09:15:32;;;;;;;11.70;11.10;;;;;;;11.61;56.12;100198.25;4969741;28;20039;-68
2022/01/04 09:20:47;;;;;;;10.88;10.38;;;;;;;10.22;61.31;100191.16;4973375;28;20119;-67
2022/01/04 09:23:20;;;;;;;11.30;10.70;;;;;;;9.89;63.74;100187.94;4969257;28;20041;-68
2022/01/04 09:25:49;;;;;;;11.70;11.10;;;;;;;11.90;59.40;100178.72;4968616;28;20404;-67
2022/01/04 09:28:16;;;;;;;11.15;10.60;;;;;;;12.10;58.02;100184.16;4963059;28;20028;-68
2022/01/04 09:30:44;;;;;;;12.82;12.13;;;;;;;13.03;53.41;100190.06;4959014;28;20106;-72
2022/01/04 09:33:10;;;;;;;11.38;10.77;;;;;;;11.35;58.94;100175.69;4965399;28;20031;-70
2022/01/04 09:35:37;;;;;;;11.40;10.80;;;;;;;8.33;71.75;100192.34;4968569;28;20027;-71
2022/01/04 09:38:05;;;;;;;12.80;12.05;;;;;;;8.97;71.46;100197.66;4962680;28;20023;-72
2022/01/04 09:40:35;;;;;;;12.02;11.32;;;;;;;8.53;73.51;100190.22;4965493;28;20031;-68
2022/01/04 09:43:06;;;;;;;12.10;11.40;;;;;;;9.08;71.66;100197.25;4968380;28;20638;-72
2022/01/04 09:45:33;;;;;;;12.48;11.77;;;;;;;9.10;71.61;100196.06;4969343;28;20031;-72
2022/01/04 09:47:58;;;;;;;12.40;11.70;;;;;;;8.33;72.62;100187.06;4963591;28;20026;-73
2022/01/04 09:50:24;;;;;;;12.75;11.98;;;;;;;8.35;73.08;100190.41;4961496;28;20046;-71
2022/01/04 09:52:49;;;;;;;11.90;11.27;;;;;;;9.16;71.33;100191.09;4975176;28;20488;-68
2022/01/04 09:55:16;;;;;;;12.15;11.45;;;;;;;7.73;75.85;100195.38;4961725;28;20051;-68
2022/01/04 09:57:43;;;;;;;11.52;10.93;;;;;;;7.78;78.19;100187.78;4972022;28;20106;-66
2022/01/04 10:00:14;;;;;;;11.95;11.27;;;;;;;9.03;74.28;100186.34;4969643;28;20033;-67
2022/01/04 10:02:40;;;;;;;11.20;10.60;;;;;;;10.07;69.96;100177.03;4969556;28;20045;-67
2022/01/04 10:05:22;;;;;;;11.60;10.95;;;;;;;10.82;67.61;100173.44;4970257;28;20034;-66
2022/01/04 10:07:59;;;;;;;11.25;10.68;;;;;;;10.57;66.42;100176.38;4968767;28;20144;-67
2022/01/04 10:10:25;;;;;;;11.05;10.45;;;;;;;7.98;78.91;100177.72;4972637;28;20337;-68
2022/01/04 10:12:59;;;;;;;11.38;10.77;;;;;;;7.23;81.48;100167.28;4971110;28;20100;-68
2022/01/04 10:15:42;;;;;;;11.25;10.65;;;;;;;7.26;81.05;100164.28;4971495;28;20473;-67
2022/01/04 10:18:13;;;;;;;11.10;10.57;;;;;;;8.10;78.53;100157.06;4972701;28;20133;-67
2022/01/04 10:20:53;;;;;;;11.48;10.88;;;;;;;9.13;73.42;100144.66;4971686;28;20101;-65
2022/01/04 10:23:22;;;;;;;11.10;10.50;;;;;;;7.95;76.71;100141.91;4970287;28;20554;-68
2022/01/04 10:25:51;;;;;;;11.63;11.02;;;;;;;8.10;74.81;100134.13;4970361;28;20080;-66
2022/01/04 10:28:35;;;;;;;11.07;10.50;;;;;;;8.09;76.46;100134.28;4970766;28;20433;-67
2022/01/04 10:31:12;;;;;;;11.38;10.75;;;;;;;8.45;74.52;100138.19;4972335;28;20469;-66
2022/01/04 10:33:38;;;;;;;11.15;10.55;;;;;;;9.34;71.75;100130.78;4971201;28;20165;-65
2022/01/04 10:36:11;;;;;;;11.13;10.52;;;;;;;9.68;69.52;100123.22;4960114;28;20500;-66
2022/01/04 10:38:39;;;;;;;11.20;10.60;;;;;;;9.08;70.39;100131.94;4970552;28;20023;-68
2022/01/04 10:41:11;;;;;;;11.60;10.95;;;;;;;8.11;74.22;100114.63;4972144;28;20123;-66
2022/01/04 10:43:43;;;;;;;11.65;10.98;;;;;;;7.36;77.42;100112.22;4972293;28;20022;-67
2022/01/04 10:46:10;;;;;;;13.75;12.85;;;;;;;7.71;77.16;100105.78;4967894;28;20046;-68
2022/01/04 10:48:39;;;;;;;11.93;11.32;;;;;;;7.52;79.11;100097.38;4968462;28;20065;-66
2022/01/04 10:51:06;;;;;;;11.10;10.50;;;;;;;7.44;80.39;100112.22;4966188;28;20037;-67
2022/01/04 10:53:43;;;;;;;12.30;11.60;;;;;;;7.69;81.13;100123.59;4969018;28;20038;-68
2022/01/04 10:56:17;;;;;;;11.77;11.07;;;;;;;8.08;78.38;100122.03;4970563;28;20047;-69
2022/01/04 10:58:48;;;;;;;11.70;11.05;;;;;;;8.24;77.59;100114.94;4962178;28;20097;-65
2022/01/04 11:01:22;;;;;;;10.88;10.27;;;;;;;7.69;81.78;100112.19;4968423;28;20035;-68
2022/01/04 11:03:57;;;;;;;11.70;11.10;;;;;;;7.26;84.42;100102.78;4966478;28;20031;-68
2022/01/04 11:06:37;;;;;;;11.18;10.57;;;;;;;7.33;83.59;100099.34;4967838;28;20535;-69
2022/01/04 11:09:07;;;;;;;11.43;10.82;;;;;;;7.56;83.72;100104.78;4960049;28;20037;-67
2022/01/04 11:11:33;;;;;;;10.68;10.15;;;;;;;8.21;78.91;100099.41;4973005;28;20116;-67
2022/01/04 11:13:59;;;;;;;11.40;10.80;;;;;;;7.53;83.26;100084.00;4973378;28;20035;-68
2022/01/04 11:16:27;;;;;;;10.77;10.18;;;;;;;7.93;81.50;100082.28;4971074;28;20030;-71
2022/01/04 11:18:55;;;;;;;11.15;10.55;;;;;;;7.24;84.42;100079.22;4979891;28;20170;-67
2022/01/04 11:21:24;;;;;;;11.13;10.52;;;;;;;7.76;83.36;100079.69;4970636;28;20589;-68
2022/01/04 11:23:50;;;;;;;12.50;11.80;;;;;;;7.66;84.68;100075.59;4956467;28;20026;-69
2022/01/04 11:26:16;;;;;;;11.05;10.45;;;;;;;8.32;80.58;100080.53;4965323;28;20042;-68
2022/01/04 11:28:47;;;;;;;11.75;11.15;;;;;;;8.47;79.15;100066.63;4969653;28;20027;-67
2022/01/04 11:31:51;;;;;;;11.07;10.48;;;;;;;8.16;79.66;100069.22;4966344;28;20042;-66
2022/01/04 11:34:24;;;;;;;11.10;10.57;;;;;;;7.98;82.07;100062.31;4950898;28;20254;-66